Time;durP1;ratioP1;P1;durP2;ratioP2;P2;SDS_P1;SDS_P2;PMS_P1;PMS_P2;Temp;Humidity;BMP_temperature;BMP_pressure;BME280_temperature;BME280_humidity;BME280_pressure;Samples;Min_cycle;Max_cycle;Signal;HPM_P1;HPM_P2
2021/01/11 00:00:55;;;;;;;46.90;22.38;;;;;;;6.51;88.67;99843.69;6195367;23;20001;-69
2021/01/11 00:03:21;;;;;;;47.47;22.77;;;;;;;6.45;88.21;99839.78;6195416;23;20001;-64
2021/01/11 00:05:46;;;;;;;44.58;21.73;;;;;;;6.62;87.82;99846.22;6195455;23;20047;-64
2021/01/11 00:08:12;;;;;;;42.38;20.88;;;;;;;6.48;88.60;99843.97;6195270;23;20028;-67
2021/01/11 00:10:37;;;;;;;43.72;22.33;;;;;;;6.50;87.88;99848.13;6195437;23;20004;-64
2021/01/11 00:13:03;;;;;;;53.90;24.17;;;;;;;6.41;88.99;99833.13;6195217;23;20227;-64
2021/01/11 00:15:28;;;;;;;44.03;21.67;;;;;;;6.42;89.04;99832.19;6195266;23;19997;-69
2021/01/11 00:17:54;;;;;;;45.55;21.73;;;;;;;6.41;88.25;99812.09;6195259;23;20061;-64
2021/01/11 00:20:19;;;;;;;46.95;22.60;;;;;;;6.40;88.83;99829.69;6195277;23;20017;-69
2021/01/11 00:22:45;;;;;;;44.60;21.13;;;;;;;6.42;88.74;99836.59;6195479;23;20283;-69
2021/01/11 00:25:12;;;;;;;44.60;21.58;;;;;;;6.45;89.32;99852.94;6195215;23;19997;-65
2021/01/11 00:27:37;;;;;;;46.22;22.33;;;;;;;6.66;87.65;99844.97;6195457;23;20013;-64
2021/01/11 00:30:06;;;;;;;49.75;22.92;;;;;;;6.42;88.94;99853.22;6195020;23;20325;-69
2021/01/11 00:32:36;;;;;;;48.65;22.52;;;;;;;6.52;88.38;99835.66;6195074;23;20013;-69
2021/01/11 00:35:03;;;;;;;46.75;22.10;;;;;;;6.65;87.94;99844.16;6195224;23;20028;-69
2021/01/11 00:37:28;;;;;;;46.15;21.92;;;;;;;6.57;88.68;99828.22;6195706;23;20282;-69
2021/01/11 00:39:54;;;;;;;42.35;21.92;;;;;;;6.63;87.92;99826.84;6195082;23;20020;-69
2021/01/11 00:42:19;;;;;;;52.60;23.42;;;;;;;6.68;88.24;99824.63;6195536;23;20012;-69
2021/01/11 00:44:45;;;;;;;41.42;21.45;;;;;;;6.77;88.17;99813.28;6195073;23;19997;-69
2021/01/11 00:47:10;;;;;;;49.13;21.42;;;;;;;6.74;87.47;99810.94;6195381;23;20001;-69
2021/01/11 00:49:36;;;;;;;44.83;21.35;;;;;;;6.61;88.26;99813.81;6194865;23;20001;-64
2021/01/11 00:52:03;;;;;;;46.40;22.33;;;;;;;6.75;87.48;99814.41;6195405;23;20035;-69
2021/01/11 00:54:29;;;;;;;45.72;21.33;;;;;;;6.69;87.25;99818.41;6194753;23;19997;-64
2021/01/11 00:56:54;;;;;;;42.22;21.77;;;;;;;6.67;87.94;99808.00;6195171;23;20031;-64
2021/01/11 00:59:19;;;;;;;46.85;21.70;;;;;;;6.64;87.67;99794.28;6194978;23;19997;-64
2021/01/11 01:01:50;;;;;;;47.80;20.88;;;;;;;6.60;87.59;99791.09;6195295;23;20057;-64
2021/01/11 01:04:16;;;;;;;36.53;18.58;;;;;;;6.53;88.09;99776.81;6194750;23;20003;-69
2021/01/11 01:06:42;;;;;;;48.75;20.63;;;;;;;6.61;88.09;99787.50;6195279;23;20012;-69
2021/01/11 01:09:07;;;;;;;39.80;18.90;;;;;;;6.51;88.15;99788.44;6194695;23;20009;-69
2021/01/11 01:11:36;;;;;;;44.15;19.08;;;;;;;6.64;87.85;99787.22;6194812;23;20056;-69
2021/01/11 01:14:01;;;;;;;37.13;18.90;;;;;;;6.48;88.64;99765.88;6194629;23;19997;-69
2021/01/11 01:16:27;;;;;;;38.92;18.23;;;;;;;6.65;87.90;99745.97;6195068;23;20005;-69
2021/01/11 01:18:54;;;;;;;34.20;17.02;;;;;;;6.58;87.89;99769.34;6194732;23;20273;-69
2021/01/11 01:21:19;;;;;;;38.83;19.20;;;;;;;6.69;88.10;99768.41;6194836;23;20004;-64
2021/01/11 01:23:45;;;;;;;37.97;17.77;;;;;;;6.67;87.71;99758.00;6194642;23;20011;-64
2021/01/11 01:26:10;;;;;;;34.38;16.77;;;;;;;6.62;88.12;99762.84;6194707;23;20009;-69
2021/01/11 01:28:36;;;;;;;43.03;18.17;;;;;;;6.70;87.40;99755.09;6194683;23;20027;-64
2021/01/11 01:31:01;;;;;;;36.00;17.15;;;;;;;6.66;87.68;99771.31;6194641;23;20005;-64
2021/01/11 01:33:27;;;;;;;33.30;15.45;;;;;;;6.69;87.17;99750.00;6194621;23;20061;-64
2021/01/11 01:35:52;;;;;;;33.00;16.45;;;;;;;6.69;87.60;99716.59;6194707;23;20016;-64
2021/01/11 01:38:18;;;;;;;35.55;17.23;;;;;;;6.71;87.50;99711.22;6195000;23;20036;-64
2021/01/11 01:40:45;;;;;;;35.78;15.43;;;;;;;6.67;86.66;99692.25;6194677;23;20005;-64
2021/01/11 01:43:11;;;;;;;26.70;13.00;;;;;;;6.82;86.58;99691.81;6194491;23;20012;-64
2021/01/11 01:45:37;;;;;;;22.27;11.30;;;;;;;6.70;86.88;99718.28;6194727;23;20291;-64
2021/01/11 01:48:03;;;;;;;29.52;13.85;;;;;;;6.76;86.87;99714.25;6194415;23;19997;-64
2021/01/11 01:50:29;;;;;;;25.55;12.65;;;;;;;6.51;87.59;99741.09;6194323;23;20001;-69
2021/01/11 01:52:54;;;;;;;24.27;11.95;;;;;;;6.58;87.96;99766.72;6194373;23;20334;-63
2021/01/11 01:55:20;;;;;;;25.67;12.10;;;;;;;6.48;87.89;99760.63;6194333;23;19997;-69
2021/01/11 01:57:47;;;;;;;23.70;11.77;;;;;;;6.59;87.70;99754.41;6194502;23;20187;-69
2021/01/11 02:00:13;;;;;;;24.45;12.02;;;;;;;6.50;87.83;99742.91;6194481;23;20261;-69
2021/01/11 02:02:39;;;;;;;23.63;11.70;;;;;;;6.38;88.48;99715.88;6195059;23;20028;-64
2021/01/11 02:05:09;;;;;;;29.15;12.85;;;;;;;6.48;88.71;99712.44;6193288;23;20004;-64
2021/01/11 02:08:15;;;;;;;28.50;14.27;;;;;;;6.37;88.84;99726.53;6195025;23;20065;-69
2021/01/11 02:11:21;;;;;;;28.65;13.98;;;;;;;6.61;89.75;99723.53;6074732;23;20078;-64
2021/01/11 02:14:13;;;;;;;25.88;12.27;;;;;;;6.70;88.16;99730.59;6132910;23;20058;-69
2021/01/11 02:16:46;;;;;;;26.70;12.35;;;;;;;6.93;86.96;99694.31;6132832;23;20049;-64
2021/01/11 02:19:17;;;;;;;28.35;12.43;;;;;;;6.86;86.45;99683.50;6176932;23;20318;-64
2021/01/11 02:22:20;;;;;;;25.48;11.85;;;;;;;6.74;87.20;99689.88;6194784;23;20025;-69
2021/01/11 02:24:53;;;;;;;25.02;13.23;;;;;;;6.82;87.50;99694.44;6194336;23;20007;-64
2021/01/11 02:27:31;;;;;;;22.52;11.55;;;;;;;6.70;87.39;99699.03;6194135;23;20008;-64
2021/01/11 02:30:12;;;;;;;21.17;10.98;;;;;;;6.84;86.75;99676.72;6194382;23;20194;-64
2021/01/11 02:32:59;;;;;;;22.27;11.35;;;;;;;6.62;87.70;99686.56;6194472;23;20013;-64
2021/01/11 02:35:25;;;;;;;27.10;12.38;;;;;;;6.49;87.50;99672.84;6194416;23;20271;-63
2021/01/11 02:37:52;;;;;;;29.38;11.75;;;;;;;6.64;87.53;99647.78;6194388;23;20013;-69
2021/01/11 02:40:17;;;;;;;20.38;10.90;;;;;;;6.70;87.70;99646.41;6194154;23;20004;-64
2021/01/11 02:42:43;;;;;;;25.13;11.70;;;;;;;6.49;88.07;99664.97;6194265;23;19997;-69
2021/01/11 02:45:10;;;;;;;25.52;12.27;;;;;;;6.58;88.29;99658.03;6192924;23;20001;-69
2021/01/11 02:48:09;;;;;;;26.75;12.07;;;;;;;6.67;88.22;99667.72;6194671;23;20290;-69
2021/01/11 02:51:13;;;;;;;29.83;12.38;;;;;;;6.66;88.17;99687.13;6189667;23;20341;-69
2021/01/11 02:54:16;;;;;;;25.83;12.17;;;;;;;6.66;87.13;99690.56;6150626;23;20005;-64
2021/01/11 02:57:08;;;;;;;24.85;10.43;;;;;;;6.64;87.65;99684.63;6196500;23;20411;-64
2021/01/11 02:59:34;;;;;;;20.65;9.98;;;;;;;6.56;87.98;99683.66;6196154;23;20036;-69
2021/01/11 03:02:09;;;;;;;20.85;9.45;;;;;;;6.74;87.26;99674.09;6195972;23;20275;-64
2021/01/11 03:04:36;;;;;;;24.23;11.75;;;;;;;6.55;87.91;99671.47;6195843;23;19997;-69
2021/01/11 03:07:04;;;;;;;20.10;9.85;;;;;;;6.49;88.37;99643.91;6196351;23;20017;-69
2021/01/11 03:09:31;;;;;;;23.08;11.45;;;;;;;6.44;89.18;99671.59;6195968;23;20210;-64
2021/01/11 03:11:58;;;;;;;23.75;11.02;;;;;;;6.58;88.51;99689.59;6196174;23;20001;-69
2021/01/11 03:14:24;;;;;;;20.92;10.93;;;;;;;6.61;89.32;99679.63;6196222;23;20005;-64
2021/01/11 03:16:51;;;;;;;25.77;11.55;;;;;;;6.70;88.32;99701.66;6194614;23;20024;-69
2021/01/11 03:19:16;;;;;;;25.08;11.00;;;;;;;6.53;88.37;99713.69;6196131;23;20016;-64
2021/01/11 03:21:42;;;;;;;22.27;10.27;;;;;;;6.62;88.92;99725.19;6196174;23;20338;-69
2021/01/11 03:24:08;;;;;;;21.20;9.98;;;;;;;6.52;89.21;99719.09;6195682;23;20016;-64
2021/01/11 03:26:37;;;;;;;29.35;12.32;;;;;;;6.36;89.08;99707.31;6195980;23;20057;-64
2021/01/11 03:29:03;;;;;;;27.33;12.82;;;;;;;6.60;88.86;99680.59;6195558;23;20005;-69
2021/01/11 03:31:29;;;;;;;26.15;12.40;;;;;;;6.63;89.22;99674.22;6195830;23;20338;-69
2021/01/11 03:33:54;;;;;;;26.10;12.05;;;;;;;6.68;88.97;99669.38;6195573;23;20005;-63
2021/01/11 03:36:20;;;;;;;24.85;12.38;;;;;;;6.66;89.18;99679.22;6196030;23;20016;-69
2021/01/11 03:38:46;;;;;;;29.52;13.82;;;;;;;6.81;88.15;99677.00;6195800;23;20012;-69
2021/01/11 03:41:12;;;;;;;27.38;14.23;;;;;;;6.73;88.50;99673.25;6195481;23;20009;-69
2021/01/11 03:43:43;;;;;;;31.45;14.35;;;;;;;6.71;87.66;99695.41;6196005;23;20064;-64
2021/01/11 03:46:10;;;;;;;27.23;13.30;;;;;;;6.79;87.94;99674.50;6195792;23;20013;-64
2021/01/11 03:48:36;;;;;;;34.60;14.65;;;;;;;6.75;87.54;99630.19;6195444;23;20004;-69
2021/01/11 03:51:02;;;;;;;31.45;13.07;;;;;;;6.79;88.05;99637.66;6195478;23;20032;-64
2021/01/11 03:53:27;;;;;;;29.83;12.77;;;;;;;6.80;87.43;99649.03;6195802;23;20025;-69
2021/01/11 03:55:53;;;;;;;32.28;13.15;;;;;;;6.78;87.98;99632.53;6195467;23;20009;-69
2021/01/11 03:58:19;;;;;;;32.63;14.50;;;;;;;6.62;87.90;99652.34;6195498;23;20008;-64
2021/01/11 04:00:46;;;;;;;33.75;14.10;;;;;;;6.62;88.25;99683.09;6195566;23;20016;-64
2021/01/11 04:03:12;;;;;;;37.65;17.27;;;;;;;6.51;88.86;99689.31;6194867;23;20001;-69
2021/01/11 04:05:45;;;;;;;36.65;15.55;;;;;;;6.57;89.80;99693.19;6195299;23;20176;-69
2021/01/11 04:08:11;;;;;;;39.95;16.15;;;;;;;6.65;89.00;99693.34;6193952;23;20005;-64
2021/01/11 04:10:36;;;;;;;38.50;15.65;;;;;;;6.61;89.16;99702.47;6195450;23;20064;-69
2021/01/11 04:13:01;;;;;;;38.55;16.42;;;;;;;6.47;89.57;99719.50;6195230;23;20008;-69
2021/01/11 04:15:27;;;;;;;39.30;17.02;;;;;;;6.40;89.18;99721.00;6195304;23;20001;-69
2021/01/11 04:17:52;;;;;;;38.38;16.15;;;;;;;6.40;89.01;99706.06;6195268;23;20005;-65
2021/01/11 04:20:18;;;;;;;38.10;16.73;;;;;;;6.39;89.80;99680.72;6195033;23;20223;-64
2021/01/11 04:22:43;;;;;;;39.38;17.20;;;;;;;6.59;88.74;99654.44;6195019;23;20025;-64
2021/01/11 04:25:10;;;;;;;47.03;17.98;;;;;;;6.31;89.19;99656.91;6195262;23;20000;-64
2021/01/11 04:27:36;;;;;;;42.85;17.58;;;;;;;6.51;89.68;99691.13;6195607;23;20013;-64
2021/01/11 04:30:01;;;;;;;46.85;16.75;;;;;;;6.39;90.58;99730.69;6195504;23;20001;-69
2021/01/11 04:32:27;;;;;;;49.00;19.52;;;;;;;6.34;90.15;99737.34;6195121;23;20321;-64
2021/01/11 04:34:52;;;;;;;51.30;20.02;;;;;;;6.47;90.40;99702.88;6195012;23;19997;-69
2021/01/11 04:37:17;;;;;;;44.83;18.42;;;;;;;6.63;89.47;99688.22;6195769;23;20060;-69
2021/01/11 04:39:43;;;;;;;45.50;16.85;;;;;;;6.56;89.33;99673.97;6193733;23;20036;-64
2021/01/11 04:42:11;;;;;;;41.47;16.58;;;;;;;6.59;88.51;99673.69;6194928;23;20012;-64
2021/01/11 04:44:38;;;;;;;40.97;15.77;;;;;;;6.26;90.66;99718.78;6195259;23;20229;-69
2021/01/11 04:47:04;;;;;;;43.40;18.27;;;;;;;6.31;90.61;99734.97;6195378;23;20024;-69
2021/01/11 04:49:30;;;;;;;55.80;26.27;;;;;;;6.49;89.70;99729.88;6194898;23;20005;-64
2021/01/11 04:51:58;;;;;;;40.55;17.90;;;;;;;6.39;90.52;99721.97;6194778;23;20211;-69
2021/01/11 04:54:25;;;;;;;38.87;16.87;;;;;;;6.27;91.30;99725.69;6194953;23;19996;-64
2021/01/11 04:56:51;;;;;;;45.15;19.92;;;;;;;6.43;90.51;99765.44;6195387;23;20097;-69
2021/01/11 04:59:20;;;;;;;38.25;17.13;;;;;;;6.35;90.08;99763.50;6194901;23;20001;-69
2021/01/11 05:01:49;;;;;;;43.60;18.77;;;;;;;6.29;91.08;99756.16;6195324;23;20060;-64
2021/01/11 05:04:15;;;;;;;41.10;17.77;;;;;;;6.30;91.19;99742.03;6194719;23;19997;-64
2021/01/11 05:06:46;;;;;;;38.57;16.27;;;;;;;6.15;92.05;99739.88;6195267;23;20065;-69
2021/01/11 05:09:15;;;;;;;37.25;16.17;;;;;;;6.29;91.84;99731.66;6194683;23;20180;-69
2021/01/11 05:11:41;;;;;;;34.58;16.17;;;;;;;6.47;91.11;99723.94;6195114;23;20179;-64
2021/01/11 05:14:07;;;;;;;32.47;14.00;;;;;;;6.19;91.33;99739.47;6194666;23;20024;-64
2021/01/11 05:16:34;;;;;;;32.90;13.60;;;;;;;6.11;92.40;99785.81;6194672;23;20060;-64
2021/01/11 05:19:25;;;;;;;33.70;14.47;;;;;;;6.21;91.95;99778.78;6194845;23;20027;-64
2021/01/11 05:21:52;;;;;;;30.95;14.60;;;;;;;6.25;92.03;99806.50;6195059;23;20013;-64
2021/01/11 05:24:34;;;;;;;35.85;15.52;;;;;;;6.36;91.39;99815.13;6194966;23;20060;-64
2021/01/11 05:27:06;;;;;;;28.50;14.07;;;;;;;6.42;90.78;99821.66;6194953;23;20075;-64
2021/01/11 05:29:32;;;;;;;32.97;13.23;;;;;;;6.27;91.07;99842.22;6194710;23;20052;-69
2021/01/11 05:32:03;;;;;;;29.65;13.45;;;;;;;6.25;91.61;99872.25;6194749;23;20024;-64
2021/01/11 05:34:48;;;;;;;36.95;15.13;;;;;;;6.11;92.17;99860.25;6194538;23;20186;-69
2021/01/11 05:37:44;;;;;;;34.72;15.07;;;;;;;5.99;93.87;99869.19;6195328;23;20001;-64
2021/01/11 05:40:15;;;;;;;42.85;17.10;;;;;;;6.01;93.62;99885.66;6194613;23;20001;-69
2021/01/11 05:42:42;;;;;;;34.87;16.23;;;;;;;6.16;92.92;99908.00;6194440;23;20001;-64
2021/01/11 05:45:22;;;;;;;35.40;16.10;;;;;;;6.20;93.43;99927.00;6194575;23;20017;-64
2021/01/11 05:48:08;;;;;;;27.87;13.17;;;;;;;6.07;93.25;99919.31;6194498;23;20057;-69
2021/01/11 05:50:39;;;;;;;29.67;13.25;;;;;;;5.93;94.60;99923.09;6194403;23;20001;-69
2021/01/11 05:53:33;;;;;;;26.73;13.20;;;;;;;6.11;94.45;99901.47;6194423;23;20191;-64
2021/01/11 05:55:59;;;;;;;31.20;13.00;;;;;;;6.18;93.37;99873.69;6193920;23;20271;-64
2021/01/11 05:58:25;;;;;;;37.83;14.75;;;;;;;6.25;93.84;99880.13;6194538;23;19997;-64
2021/01/11 06:00:50;;;;;;;34.17;14.33;;;;;;;6.02;93.81;99861.88;6194587;23;20023;-70
2021/01/11 06:03:17;;;;;;;31.38;14.27;;;;;;;6.14;93.71;99857.34;6194322;23;20033;-64
2021/01/11 06:05:43;;;;;;;28.33;13.63;;;;;;;6.22;93.21;99840.91;6194400;23;20001;-69
2021/01/11 06:08:11;;;;;;;27.95;13.00;;;;;;;6.05;93.90;99818.72;6194388;23;20013;-69
2021/01/11 06:10:37;;;;;;;30.93;12.80;;;;;;;6.01;94.27;99791.03;6194579;23;20052;-69
2021/01/11 06:13:08;;;;;;;24.97;12.30;;;;;;;6.09;94.30;99788.56;6192951;23;20313;-66
2021/01/11 06:15:34;;;;;;;32.72;14.60;;;;;;;6.01;94.19;99791.03;6194457;23;20051;-64
2021/01/11 06:18:00;;;;;;;33.87;15.97;;;;;;;6.13;93.73;99779.44;6194676;23;20089;-69
2021/01/11 06:20:28;;;;;;;35.40;16.27;;;;;;;6.05;93.21;99785.38;6194248;23;20172;-70
2021/01/11 06:22:54;;;;;;;30.77;15.67;;;;;;;6.09;93.20;99784.13;6194261;23;20055;-64
2021/01/11 06:25:19;;;;;;;35.13;16.33;;;;;;;6.21;92.92;99787.50;6194269;23;20001;-69
2021/01/11 06:27:59;;;;;;;37.95;15.25;;;;;;;6.09;92.79;99804.34;6195394;23;20198;-64
2021/01/11 06:30:51;;;;;;;43.17;16.77;;;;;;;6.18;92.88;99736.97;6196346;23;19997;-64
2021/01/11 06:33:25;;;;;;;39.63;15.82;;;;;;;6.44;92.64;99737.34;6190500;23;20055;-69
2021/01/11 06:35:52;;;;;;;32.20;15.80;;;;;;;6.44;91.10;99696.09;6196437;23;20055;-64
2021/01/11 06:38:25;;;;;;;28.27;11.53;;;;;;;6.48;90.24;99662.47;6196331;23;20001;-64
2021/01/11 06:41:03;;;;;;;30.90;12.73;;;;;;;6.46;89.91;99706.47;6196220;23;20009;-69
2021/01/11 06:43:37;;;;;;;24.40;10.73;;;;;;;6.55;91.16;99717.00;6196225;23;20001;-69
2021/01/11 06:46:03;;;;;;;21.02;10.20;;;;;;;6.94;88.47;99699.44;6196388;23;20009;-64
2021/01/11 06:48:32;;;;;;;19.48;10.07;;;;;;;7.00;86.95;99674.34;6196119;23;20306;-64
2021/01/11 06:51:06;;;;;;;20.10;9.15;;;;;;;6.84;86.92;99674.91;6196069;23;20013;-69
2021/01/11 06:53:31;;;;;;;26.80;11.50;;;;;;;6.58;88.12;99682.53;6194580;23;20005;-69
2021/01/11 06:56:06;;;;;;;27.00;12.20;;;;;;;6.19;90.11;99672.91;6196470;23;20009;-69
2021/01/11 06:58:33;;;;;;;32.93;15.23;;;;;;;6.06;91.62;99612.72;6196357;23;20437;-69
2021/01/11 07:01:05;;;;;;;33.23;15.87;;;;;;;6.12;91.80;99590.31;6195991;23;20019;-69
2021/01/11 07:03:50;;;;;;;33.30;14.53;;;;;;;6.03;92.29;99629.59;6196074;23;20005;-69
2021/01/11 07:06:34;;;;;;;28.60;13.38;;;;;;;6.06;92.31;99657.41;6195827;23;20009;-64
2021/01/11 07:09:06;;;;;;;30.60;13.40;;;;;;;6.18;92.12;99674.72;6195767;23;20313;-69
2021/01/11 07:11:39;;;;;;;79.75;34.13;;;;;;;6.53;90.87;99668.13;6195868;23;20012;-64
2021/01/11 07:14:06;;;;;;;38.20;18.23;;;;;;;6.52;89.78;99685.72;6195967;23;20001;-69
2021/01/11 07:16:50;;;;;;;51.90;25.20;;;;;;;6.40;90.69;99699.97;6196271;23;20021;-69
2021/01/11 07:19:37;;;;;;;53.63;25.02;;;;;;;6.45;91.15;99695.13;6195854;23;20390;-64
2021/01/11 07:22:05;;;;;;;40.23;17.20;;;;;;;6.25;91.04;99693.44;6196075;23;20009;-67
2021/01/11 07:24:30;;;;;;;34.60;16.02;;;;;;;6.29;91.52;99690.41;6196149;23;20012;-63
2021/01/11 07:26:56;;;;;;;36.17;15.87;;;;;;;6.21;92.43;99692.84;6196058;23;20198;-69
2021/01/11 07:29:22;;;;;;;36.60;16.85;;;;;;;6.25;92.37;99725.81;6195646;23;20024;-69
2021/01/11 07:31:49;;;;;;;42.47;20.60;;;;;;;6.33;92.02;99754.06;6195795;23;20020;-69
2021/01/11 07:34:21;;;;;;;42.20;19.20;;;;;;;6.35;92.93;99750.34;6195631;23;20021;-69
2021/01/11 07:36:56;;;;;;;44.78;20.67;;;;;;;6.58;91.86;99744.84;6196137;23;20158;-69
2021/01/11 07:39:29;;;;;;;44.13;22.37;;;;;;;6.62;91.33;99743.59;6195626;23;19997;-69
2021/01/11 07:41:59;;;;;;;51.73;26.70;;;;;;;6.61;91.00;99755.94;6195471;23;20009;-69
2021/01/11 07:44:34;;;;;;;55.10;27.87;;;;;;;6.69;91.19;99781.56;6195615;23;20306;-69
2021/01/11 07:47:08;;;;;;;45.92;21.50;;;;;;;6.72;91.12;99792.66;6196051;23;20013;-69
2021/01/11 07:49:49;;;;;;;44.13;19.80;;;;;;;6.91;90.75;99809.44;6195537;23;20102;-69
2021/01/11 07:52:26;;;;;;;43.80;20.35;;;;;;;7.02;90.19;99801.41;6195997;23;20008;-64
2021/01/11 07:55:02;;;;;;;52.78;22.08;;;;;;;6.88;90.16;99810.53;6195548;23;20003;-69
2021/01/11 07:57:29;;;;;;;48.50;21.58;;;;;;;6.83;90.71;99790.84;6196037;23;20064;-69
2021/01/11 08:00:11;;;;;;;41.00;18.90;;;;;;;7.15;88.42;99791.44;6195391;23;20001;-64
2021/01/11 08:02:38;;;;;;;39.75;16.52;;;;;;;7.30;87.39;99786.59;6196080;23;20068;-64
2021/01/11 08:05:05;;;;;;;39.75;16.48;;;;;;;6.99;89.20;99785.88;6195222;23;20021;-64
2021/01/11 08:07:32;;;;;;;35.05;16.38;;;;;;;7.07;89.37;99778.13;6195914;23;20012;-69
2021/01/11 08:10:00;;;;;;;33.22;17.08;;;;;;;7.14;89.13;99762.59;6195696;23;19997;-64
2021/01/11 08:12:27;;;;;;;33.25;16.48;;;;;;;7.13;88.24;99772.31;6195223;23;20020;-69
2021/01/11 08:15:00;;;;;;;35.63;16.90;;;;;;;7.10;88.30;99819.16;6195310;23;20035;-64
2021/01/11 08:17:27;;;;;;;38.20;18.38;;;;;;;7.02;90.00;99822.47;6196085;23;20031;-69
2021/01/11 08:19:57;;;;;;;53.58;23.85;;;;;;;7.18;90.36;99808.75;6195457;23;20452;-70
2021/01/11 08:22:24;;;;;;;60.38;24.75;;;;;;;7.21;89.08;99811.94;6195751;23;20031;-69
2021/01/11 08:24:58;;;;;;;61.15;26.98;;;;;;;7.33;88.70;99821.38;6195310;23;20209;-69
2021/01/11 08:27:31;;;;;;;60.83;25.50;;;;;;;7.23;88.33;99828.44;6195817;23;20021;-64
2021/01/11 08:30:05;;;;;;;51.55;23.73;;;;;;;7.20;89.30;99833.97;6195226;23;20029;-64
2021/01/11 08:32:32;;;;;;;44.10;19.45;;;;;;;7.24;89.59;99831.91;6195380;23;20013;-64
2021/01/11 08:34:57;;;;;;;39.63;19.33;;;;;;;7.32;89.99;99821.53;6195021;23;20222;-64
2021/01/11 08:37:29;;;;;;;42.10;19.10;;;;;;;7.41;88.24;99841.78;6195679;23;20009;-64
2021/01/11 08:39:56;;;;;;;42.80;21.90;;;;;;;7.59;87.04;99811.09;6195071;23;20370;-69
2021/01/11 08:42:22;;;;;;;43.33;19.85;;;;;;;7.65;86.50;99793.88;6195592;23;20005;-64
2021/01/11 08:44:48;;;;;;;46.47;20.95;;;;;;;7.58;86.19;99812.06;6195052;23;20064;-69
2021/01/11 08:47:13;;;;;;;76.40;42.75;;;;;;;7.41;87.49;99786.44;6195526;23;20027;-64
2021/01/11 08:50:04;;;;;;;49.75;27.92;;;;;;;7.51;89.00;99773.25;6194552;23;20249;-69
2021/01/11 08:52:33;;;;;;;95.43;57.05;;;;;;;7.59;88.23;99810.28;6181183;23;20015;-64
2021/01/11 08:55:14;;;;;;;56.88;32.33;;;;;;;7.47;88.63;99835.94;6194946;23;20027;-69
2021/01/11 08:57:40;;;;;;;47.50;23.05;;;;;;;7.50;89.61;99845.38;6193744;23;20001;-69
2021/01/11 09:00:12;;;;;;;45.05;22.25;;;;;;;7.59;89.13;99863.81;6194884;23;20001;-64
2021/01/11 09:02:47;;;;;;;39.85;19.35;;;;;;;7.62;89.27;99866.16;6195565;23;20011;-69
2021/01/11 09:05:16;;;;;;;39.58;19.33;;;;;;;7.54;89.72;99849.38;6194715;23;20028;-69
2021/01/11 09:07:42;;;;;;;40.13;19.23;;;;;;;7.65;89.30;99833.41;6195407;23;20060;-64
2021/01/11 09:10:22;;;;;;;47.10;20.80;;;;;;;7.77;88.93;99853.38;6194759;23;20033;-64
2021/01/11 09:12:49;;;;;;;47.78;23.02;;;;;;;7.77;88.25;99813.84;6194841;23;20016;-69
2021/01/11 09:15:28;;;;;;;70.28;34.22;;;;;;;7.85;87.94;99827.13;6194777;23;20050;-65
2021/01/11 09:18:01;;;;;;;82.93;36.78;;;;;;;7.63;88.88;99861.72;6195092;23;20005;-64
2021/01/11 09:20:27;;;;;;;88.63;43.72;;;;;;;7.78;89.40;99841.03;6194552;23;19997;-69
2021/01/11 09:22:56;;;;;;;51.55;24.75;;;;;;;7.62;90.01;99834.53;6194551;23;20079;-66
2021/01/11 09:25:22;;;;;;;47.08;23.08;;;;;;;7.77;89.35;99834.94;6194622;23;20052;-64
2021/01/11 09:27:48;;;;;;;54.20;26.33;;;;;;;7.85;89.15;99832.41;6194533;23;20011;-64
2021/01/11 09:30:15;;;;;;;48.33;21.27;;;;;;;7.77;88.90;99829.66;6194616;23;19997;-64
2021/01/11 09:32:43;;;;;;;61.50;29.77;;;;;;;7.87;88.68;99843.66;6194718;23;20064;-64
2021/01/11 09:35:10;;;;;;;46.20;23.02;;;;;;;7.72;89.32;99846.88;6194471;23;20024;-64
2021/01/11 09:37:35;;;;;;;76.32;36.83;;;;;;;7.72;88.93;99878.50;6195168;23;20226;-69
2021/01/11 09:40:01;;;;;;;57.88;32.15;;;;;;;7.88;88.34;99832.13;6194656;23;20004;-64
2021/01/11 09:42:26;;;;;;;49.53;23.40;;;;;;;7.89;88.08;99823.25;6195155;23;20009;-64
2021/01/11 09:44:51;;;;;;;53.63;25.90;;;;;;;7.87;87.67;99825.19;6194584;23;19997;-64
2021/01/11 09:47:17;;;;;;;65.85;33.40;;;;;;;7.83;88.76;99802.72;6194972;23;20005;-69
2021/01/11 09:49:42;;;;;;;41.58;21.23;;;;;;;7.85;88.52;99811.31;6194428;23;19997;-65
2021/01/11 09:52:08;;;;;;;39.47;21.35;;;;;;;7.95;88.40;99804.22;6195042;23;20004;-64
2021/01/11 09:54:33;;;;;;;44.35;22.77;;;;;;;7.84;87.99;99782.47;6194387;23;20203;-64
2021/01/11 09:56:59;;;;;;;51.38;23.27;;;;;;;7.90;87.44;99806.44;6194690;23;20009;-64
2021/01/11 09:59:25;;;;;;;56.75;28.42;;;;;;;7.86;88.46;99812.97;6194536;23;20001;-64
2021/01/11 10:01:52;;;;;;;80.25;31.58;;;;;;;7.85;87.72;99779.69;6195414;23;20012;-64
2021/01/11 10:04:19;;;;;;;112.15;53.15;;;;;;;7.75;88.24;99788.59;6196390;23;20001;-69
2021/01/11 10:06:48;;;;;;;81.30;41.35;;;;;;;7.68;88.87;99796.25;6195147;23;20052;-69
2021/01/11 10:09:16;;;;;;;59.53;29.27;;;;;;;7.67;89.51;99813.84;6196353;23;20048;-64
2021/01/11 10:11:45;;;;;;;46.92;22.85;;;;;;;7.54;90.57;99813.31;6196907;23;20021;-69
2021/01/11 10:14:11;;;;;;;57.17;24.30;;;;;;;7.56;90.69;99818.47;6196475;23;20290;-64
2021/01/11 10:16:42;;;;;;;57.08;28.00;;;;;;;7.56;90.50;99831.63;6196944;23;20005;-64
2021/01/11 10:19:14;;;;;;;63.70;29.48;;;;;;;7.76;90.17;99835.06;6196212;23;20001;-70
2021/01/11 10:21:40;;;;;;;71.82;34.83;;;;;;;7.57;90.64;99835.94;6196740;23;20012;-64
2021/01/11 10:24:06;;;;;;;73.50;37.63;;;;;;;7.56;90.96;99852.72;6196260;23;20004;-64
2021/01/11 10:26:33;;;;;;;69.20;31.23;;;;;;;7.61;89.68;99839.94;6196703;23;20004;-69
2021/01/11 10:28:59;;;;;;;58.55;29.05;;;;;;;7.43;90.54;99810.84;6196136;23;20001;-70
2021/01/11 10:31:24;;;;;;;63.70;29.48;;;;;;;7.48;91.07;99787.53;6196053;23;20357;-64
2021/01/11 10:33:50;;;;;;;74.30;32.22;;;;;;;7.61;90.21;99788.06;6196268;23;20286;-70
2021/01/11 10:36:15;;;;;;;69.63;30.92;;;;;;;7.64;90.79;99781.69;6196375;23;20016;-64
2021/01/11 10:38:42;;;;;;;106.00;41.80;;;;;;;7.60;90.34;99780.31;6196214;23;20001;-69
2021/01/11 10:41:09;;;;;;;78.18;36.53;;;;;;;7.76;90.10;99774.44;6196218;23;20299;-69
2021/01/11 10:43:35;;;;;;;83.72;35.85;;;;;;;7.83;90.02;99749.16;6196202;23;20053;-69
2021/01/11 10:46:02;;;;;;;77.18;35.70;;;;;;;7.76;89.73;99741.00;6196387;23;20008;-69
2021/01/11 10:48:27;;;;;;;93.05;42.80;;;;;;;7.78;90.02;99783.03;6196124;23;20056;-70
2021/01/11 10:50:53;;;;;;;112.88;53.17;;;;;;;7.76;90.06;99793.72;6195992;23;20009;-65
2021/01/11 10:53:19;;;;;;;133.02;56.40;;;;;;;7.83;90.30;99789.53;6195917;23;20001;-64
2021/01/11 10:55:45;;;;;;;121.70;56.00;;;;;;;7.94;89.01;99785.91;6196164;23;20076;-69
2021/01/11 10:58:11;;;;;;;107.03;50.97;;;;;;;7.90;89.61;99758.16;6195880;23;20032;-64
2021/01/11 11:00:37;;;;;;;120.40;50.33;;;;;;;8.02;88.34;99722.72;6196013;23;20248;-69
2021/01/11 11:03:05;;;;;;;100.05;47.97;;;;;;;8.14;87.43;99729.47;6195902;23;20024;-64
2021/01/11 11:05:31;;;;;;;95.50;46.97;;;;;;;7.99;88.38;99705.38;6195905;23;20001;-69
2021/01/11 11:07:56;;;;;;;99.78;47.03;;;;;;;8.06;87.48;99723.25;6195938;23;20342;-69
2021/01/11 11:10:22;;;;;;;95.30;49.05;;;;;;;7.87;89.00;99740.81;6195817;23;20001;-64
2021/01/11 11:12:49;;;;;;;144.60;80.50;;;;;;;7.80;89.98;99750.28;6196001;23;20008;-64
2021/01/11 11:15:14;;;;;;;104.18;51.20;;;;;;;7.72;89.97;99770.44;6196303;23;20008;-64
2021/01/11 11:17:40;;;;;;;102.78;48.42;;;;;;;7.70;90.92;99767.94;6195673;23;20009;-69
2021/01/11 11:20:06;;;;;;;97.25;46.42;;;;;;;7.90;90.62;99766.06;6195663;23;20052;-64
2021/01/11 11:22:31;;;;;;;99.72;47.30;;;;;;;7.95;89.84;99753.28;6196424;23;20009;-69
2021/01/11 11:24:57;;;;;;;119.05;51.75;;;;;;;8.11;88.87;99713.09;6196002;23;20000;-69
2021/01/11 11:27:22;;;;;;;113.18;52.78;;;;;;;7.94;89.26;99712.91;6196103;23;20055;-68
2021/01/11 11:29:48;;;;;;;129.38;55.72;;;;;;;7.72;90.27;99771.25;6195705;23;20020;-69
2021/01/11 11:32:16;;;;;;;102.18;47.50;;;;;;;7.56;91.39;99805.28;6195731;23;20022;-69
2021/01/11 11:34:42;;;;;;;77.90;38.00;;;;;;;7.46;92.30;99765.78;6195556;23;19997;-64